TimeHST,TemperatureF,Dew PointF,Humidity,Sea Level PressureIn,VisibilityMPH,Wind Direction,Wind SpeedMPH,Gust SpeedMPH,PrecipitationIn,Events,Conditions,WindDirDegrees,DateUTC
12:56 AM,73.0,62.1,68,29.95,10.0,East,3.5,-,N/A,,Mostly Cloudy,100,2012-11-23 10:56:00
1:56 AM,75.9,72.0,87,29.95,9.0,North,15.0,-,0.01,Rain,Light Rain,360,2012-11-23 11:56:00
2:13 AM,75.2,66.2,73,29.94,6.2,NNW,5.8,-,0.06,Rain,Heavy Rain,340,2012-11-23 12:13:00
2:56 AM,72.0,64.0,76,29.93,10.0,ESE,3.5,-,0.13,,Overcast,110,2012-11-23 12:56:00
3:56 AM,72.0,66.0,81,29.93,10.0,ENE,3.5,-,N/A,,Mostly Cloudy,70,2012-11-23 13:56:00
4:56 AM,72.0,64.0,76,29.93,10.0,Calm,Calm,-,N/A,,Mostly Cloudy,0,2012-11-23 14:56:00
5:56 AM,71.1,62.1,73,29.93,10.0,East,4.6,-,N/A,,Clear,80,2012-11-23 15:56:00
6:56 AM,71.1,61.0,70,29.95,10.0,Calm,Calm,-,N/A,,Clear,0,2012-11-23 16:56:00
7:56 AM,72.0,64.0,76,29.96,10.0,East,5.8,-,N/A,,Clear,100,2012-11-23 17:56:00
8:56 AM,75.9,64.0,67,29.96,10.0,SSE,3.5,-,N/A,,Clear,160,2012-11-23 18:56:00
9:56 AM,80.1,66.9,64,29.97,10.0,South,5.8,-,N/A,,Clear,180,2012-11-23 19:56:00
10:56 AM,80.1,75.9,87,29.98,10.0,SSW,6.9,-,N/A,,Clear,200,2012-11-23 20:56:00
11:56 AM,79.0,-9999,N/A,29.96,10.0,West,4.6,-,N/A,,Clear,260,2012-11-23 21:56:00
12:56 PM,80.1,80.1,100,29.94,10.0,West,5.8,-,N/A,,Clear,270,2012-11-23 22:56:00
1:56 PM,79.0,79.0,100,29.91,10.0,West,4.6,-,N/A,,Clear,260,2012-11-23 23:56:00
2:56 PM,79.0,70.0,74,29.91,10.0,WSW,4.6,-,N/A,,Scattered Clouds,250,2012-11-24 00:56:00
3:56 PM,79.0,66.9,66,29.91,10.0,WSW,5.8,-,N/A,,Partly Cloudy,240,2012-11-24 01:56:00
4:56 PM,78.1,70.0,76,29.93,10.0,Calm,Calm,-,N/A,,Partly Cloudy,0,2012-11-24 02:56:00
5:11 PM,78.8,73.4,83,29.92,10.0,WSW,3.5,-,N/A,,Mostly Cloudy,250,2012-11-24 03:11:00
5:41 PM,77.0,75.2,94,29.93,10.0,ESE,5.8,-,N/A,,Scattered Clouds,120,2012-11-24 03:41:00
5:56 PM,75.9,75.9,100,29.94,10.0,SE,4.6,-,N/A,,Partly Cloudy,140,2012-11-24 03:56:00
6:56 PM,75.0,-9999,N/A,29.97,10.0,Calm,Calm,-,N/A,,Clear,0,2012-11-24 04:56:00
7:56 PM,73.9,73.0,97,29.99,10.0,ESE,3.5,-,N/A,,Clear,110,2012-11-24 05:56:00
8:56 PM,73.0,73.0,100,30.00,10.0,ENE,3.5,-,N/A,,Clear,70,2012-11-24 06:56:00
9:56 PM,73.0,69.1,87,30.00,10.0,East,4.6,-,N/A,,Clear,90,2012-11-24 07:56:00
10:56 PM,72.0,72.0,100,29.98,10.0,ESE,3.5,-,N/A,,Clear,110,2012-11-24 08:56:00
11:56 PM,71.1,71.1,100,29.99,10.0,NNE,3.5,-,N/A,,Clear,20,2012-11-24 09:56:00